Time;durP1;ratioP1;P1;durP2;ratioP2;P2;SDS_P1;SDS_P2;PMS_P1;PMS_P2;Temp;Humidity;BMP_temperature;BMP_pressure;BME280_temperature;BME280_humidity;BME280_pressure;Samples;Min_cycle;Max_cycle;Signal;HPM_P1;HPM_P2
2022/04/22 00:02:15;;;;;;;14.15;6.32;;;9.30;99.90;;;;;;5065309;28;20662;-59
2022/04/22 00:04:40;;;;;;;9.52;5.80;;;9.40;99.90;;;;;;5066237;28;20400;-57
2022/04/22 00:07:06;;;;;;;11.43;7.15;;;9.40;99.90;;;;;;5064638;28;20510;-58
2022/04/22 00:09:31;;;;;;;8.10;5.80;;;9.30;99.90;;;;;;5069244;28;20021;-58
2022/04/22 00:11:57;;;;;;;9.43;5.70;;;9.30;99.90;;;;;;5061975;28;20029;-58
2022/04/22 00:14:22;;;;;;;7.47;5.57;;;9.30;99.90;;;;;;5055486;28;20554;-53
2022/04/22 00:16:48;;;;;;;10.30;5.18;;;9.20;99.90;;;;;;5059926;28;20048;-51
2022/04/22 00:19:14;;;;;;;10.70;6.30;;;9.20;99.90;;;;;;5072780;28;20431;-59
2022/04/22 00:21:43;;;;;;;8.23;5.90;;;9.10;99.90;;;;;;5064868;28;20025;-57
2022/04/22 00:24:09;;;;;;;9.32;6.13;;;9.10;99.90;;;;;;5074759;28;20021;-57
2022/04/22 00:26:35;;;;;;;8.88;5.93;;;9.00;99.90;;;;;;5068175;28;20054;-59
2022/04/22 00:29:01;;;;;;;8.43;6.32;;;8.90;99.90;;;;;;5075073;28;20025;-57
2022/04/22 00:31:26;;;;;;;8.13;5.70;;;8.90;99.90;;;;;;5063980;28;20024;-55
2022/04/22 00:33:52;;;;;;;9.65;5.95;;;8.80;99.90;;;;;;5073248;28;20029;-56
2022/04/22 00:36:18;;;;;;;9.80;5.70;;;8.80;99.90;;;;;;5064243;28;20025;-56
2022/04/22 00:38:43;;;;;;;12.40;6.60;;;8.80;99.90;;;;;;5077307;28;20016;-57
2022/04/22 00:41:09;;;;;;;10.85;6.30;;;8.80;99.90;;;;;;5081691;28;20450;-54
2022/04/22 00:43:44;;;;;;;10.05;7.43;;;8.90;99.90;;;;;;5067835;28;20025;-57
2022/04/22 00:46:10;;;;;;;10.23;5.85;;;8.90;99.90;;;;;;5066022;28;20020;-54
2022/04/22 00:48:36;;;;;;;9.05;6.53;;;8.80;99.90;;;;;;5062043;28;20075;-57
2022/04/22 00:51:10;;;;;;;12.90;6.25;;;8.90;99.90;;;;;;5088052;23;20060;-58
2022/04/22 00:53:37;;;;;;;10.30;6.30;;;8.90;99.90;;;;;;5072292;28;20040;-58
2022/04/22 00:56:05;;;;;;;7.88;5.78;;;8.90;99.90;;;;;;5056702;28;20108;-59
2022/04/22 00:58:31;;;;;;;10.40;6.07;;;8.90;99.90;;;;;;5054943;28;20109;-57
2022/04/22 01:00:57;;;;;;;11.60;6.50;;;9.00;99.90;;;;;;5066392;28;20073;-59
2022/04/22 01:03:23;;;;;;;9.25;6.65;;;8.90;99.90;;;;;;5050370;28;20065;-59
2022/04/22 01:11:20;;;;;;;12.68;6.70;;;8.70;99.90;;;;;;5044718;28;20040;-58
2022/04/22 01:13:46;;;;;;;13.82;7.03;;;8.50;99.90;;;;;;5050192;28;20024;-58
2022/04/22 01:16:12;;;;;;;12.13;6.93;;;8.40;99.90;;;;;;5043447;28;20484;-59
2022/04/22 01:18:38;;;;;;;10.82;6.40;;;8.40;99.90;;;;;;5050066;28;20052;-57
2022/04/22 01:21:03;;;;;;;14.68;7.65;;;8.30;99.90;;;;;;5048909;28;20037;-59
2022/04/22 01:23:29;;;;;;;9.35;6.88;;;8.20;99.90;;;;;;5052193;28;20187;-57
2022/04/22 01:25:56;;;;;;;13.13;6.63;;;8.20;99.90;;;;;;5051767;28;20040;-56
2022/04/22 01:28:25;;;;;;;13.50;7.80;;;8.20;99.90;;;;;;5043784;28;20022;-58
2022/04/22 01:31:00;;;;;;;15.05;7.65;;;8.30;99.90;;;;;;5039154;28;20492;-58
2022/04/22 01:33:26;;;;;;;11.65;7.25;;;8.30;99.90;;;;;;5051676;28;20037;-58
2022/04/22 01:35:51;;;;;;;11.70;7.32;;;8.30;99.90;;;;;;5049074;28;20049;-59
2022/04/22 01:38:17;;;;;;;14.80;8.18;;;8.40;99.90;;;;;;5049203;28;20055;-58
2022/04/22 01:40:43;;;;;;;9.88;7.03;;;8.30;99.90;;;;;;5050936;28;20036;-59
2022/04/22 01:43:08;;;;;;;15.45;7.60;;;8.20;99.90;;;;;;5050880;28;20025;-59
2022/04/22 01:45:34;;;;;;;14.70;7.68;;;8.10;99.90;;;;;;5050568;28;20021;-59
2022/04/22 01:48:00;;;;;;;13.88;7.82;;;8.10;99.90;;;;;;5049582;28;20029;-59
2022/04/22 01:50:26;;;;;;;9.75;6.75;;;8.00;99.90;;;;;;5051004;28;20060;-58
2022/04/22 01:52:52;;;;;;;11.32;7.30;;;8.00;99.90;;;;;;5051568;28;20064;-58
2022/04/22 01:55:18;;;;;;;10.45;7.43;;;7.90;99.90;;;;;;5048305;28;20052;-56
2022/04/22 01:57:43;;;;;;;9.80;7.07;;;7.80;99.90;;;;;;5019205;28;20037;-58
2022/04/22 02:00:10;;;;;;;13.35;7.28;;;7.80;99.90;;;;;;5049757;28;20060;-58
2022/04/22 02:02:36;;;;;;;10.82;7.38;;;7.80;99.90;;;;;;5049410;28;20036;-59
2022/04/22 02:05:06;;;;;;;14.65;7.63;;;7.70;99.90;;;;;;5043705;28;20033;-58
2022/04/22 02:07:32;;;;;;;11.57;7.28;;;7.70;99.90;;;;;;5046395;28;20411;-59
2022/04/22 02:09:57;;;;;;;13.90;8.27;;;7.80;99.90;;;;;;5047082;28;20115;-57
2022/04/22 02:12:23;;;;;;;13.90;8.30;;;7.70;99.90;;;;;;5050872;28;20025;-57
2022/04/22 02:14:48;;;;;;;12.07;7.78;;;7.80;99.90;;;;;;5049721;28;20553;-58
2022/04/22 02:17:14;;;;;;;12.15;7.75;;;7.70;99.90;;;;;;5049233;28;20040;-58
2022/04/22 02:19:40;;;;;;;16.20;8.27;;;7.80;99.90;;;;;;5047609;28;20460;-58
2022/04/22 02:22:06;;;;;;;15.68;8.18;;;7.90;99.90;;;;;;5046508;28;20028;-60
2022/04/22 02:24:32;;;;;;;10.98;7.90;;;8.00;99.90;;;;;;5048928;28;20052;-58
2022/04/22 02:29:42;;;;;;;11.50;8.07;;;8.10;99.90;;;;;;5046795;28;20039;-57
2022/04/22 02:32:08;;;;;;;14.85;8.80;;;8.10;99.90;;;;;;5048077;28;20021;-56
2022/04/22 02:34:33;;;;;;;13.98;9.35;;;8.00;99.90;;;;;;5043568;28;20029;-58
2022/04/22 02:36:59;;;;;;;15.88;9.40;;;8.00;99.90;;;;;;5049145;28;20032;-59
2022/04/22 02:39:24;;;;;;;14.07;8.77;;;8.00;99.90;;;;;;5050339;28;20447;-59
2022/04/22 02:47:18;;;;;;;16.02;9.35;;;7.90;99.90;;;;;;5044318;28;20041;-59
2022/04/22 02:49:44;;;;;;;18.38;10.18;;;7.90;99.90;;;;;;5047995;28;20499;-59
2022/04/22 02:52:14;;;;;;;20.52;11.63;;;7.90;99.90;;;;;;5047818;28;20056;-57
2022/04/22 02:54:40;;;;;;;16.13;9.70;;;8.10;99.90;;;;;;5050853;28;20534;-58
2022/04/22 02:57:07;;;;;;;15.48;9.75;;;8.10;99.90;;;;;;5050150;28;20612;-59
2022/04/22 02:59:34;;;;;;;17.67;10.65;;;8.10;99.90;;;;;;5045986;28;20369;-59
2022/04/22 03:01:59;;;;;;;17.50;10.18;;;8.10;99.90;;;;;;5046759;28;20487;-59
2022/04/22 03:04:26;;;;;;;17.63;10.38;;;8.10;99.90;;;;;;5045257;28;20080;-59
2022/04/22 03:06:51;;;;;;;16.23;9.88;;;8.10;99.90;;;;;;5044607;28;20500;-59
2022/04/22 03:09:17;;;;;;;18.15;11.20;;;8.10;99.90;;;;;;5039238;28;20126;-57
2022/04/22 03:11:43;;;;;;;22.50;11.23;;;8.10;99.90;;;;;;5037881;28;20041;-58
2022/04/22 03:14:08;;;;;;;19.75;11.32;;;8.00;99.90;;;;;;5032830;28;20037;-57
2022/04/22 03:16:37;;;;;;;23.80;12.18;;;8.00;99.90;;;;;;5034018;28;20044;-57
2022/04/22 03:19:03;;;;;;;20.15;12.23;;;8.00;99.90;;;;;;5032889;28;21069;-59
2022/04/22 03:21:28;;;;;;;20.10;11.90;;;7.90;99.90;;;;;;5035480;28;20139;-57
2022/04/22 03:23:54;;;;;;;23.30;13.00;;;7.90;99.90;;;;;;5033928;28;20124;-59
2022/04/22 03:26:19;;;;;;;22.67;12.40;;;7.90;99.90;;;;;;5034501;28;20090;-58
2022/04/22 03:28:46;;;;;;;20.30;13.30;;;7.80;99.90;;;;;;5036991;28;20094;-58
2022/04/22 03:31:12;;;;;;;23.45;13.95;;;7.70;99.90;;;;;;5034274;28;20104;-58
2022/04/22 03:33:37;;;;;;;22.42;14.15;;;7.70;99.90;;;;;;5036647;28;20059;-58
2022/04/22 03:36:03;;;;;;;22.95;14.23;;;7.70;99.90;;;;;;5033014;28;20025;-58
2022/04/22 03:38:29;;;;;;;23.20;13.32;;;7.70;99.90;;;;;;5032652;28;20485;-59
2022/04/22 03:40:55;;;;;;;25.25;14.00;;;7.70;99.90;;;;;;5033509;28;20058;-58
2022/04/22 03:43:22;;;;;;;23.05;13.55;;;7.70;99.90;;;;;;5033259;28;20034;-57
2022/04/22 03:45:48;;;;;;;24.65;14.75;;;7.70;99.90;;;;;;5033989;28;20026;-57
2022/04/22 03:48:14;;;;;;;23.15;13.55;;;7.70;99.90;;;;;;5032234;28;21407;-58
2022/04/22 03:50:40;;;;;;;25.70;15.20;;;7.70;99.90;;;;;;5032872;28;20040;-59
2022/04/22 03:53:06;;;;;;;24.70;13.93;;;7.70;99.90;;;;;;5033293;28;20120;-59
2022/04/22 03:55:32;;;;;;;21.85;13.45;;;7.70;99.90;;;;;;5035531;28;20071;-59
2022/04/22 03:58:10;;;;;;;20.13;12.65;;;7.60;99.90;;;;;;5032858;28;20511;-57
2022/04/22 04:00:48;;;;;;;22.70;13.57;;;7.50;99.90;;;;;;5034174;28;20068;-59
2022/04/22 04:03:26;;;;;;;22.17;12.93;;;7.40;99.90;;;;;;5035487;28;20512;-59
2022/04/22 04:05:52;;;;;;;22.52;13.38;;;7.30;99.90;;;;;;5032847;28;20021;-58
2022/04/22 04:08:19;;;;;;;23.10;13.15;;;7.30;99.90;;;;;;5032373;28;20582;-59
2022/04/22 04:16:14;;;;;;;25.80;13.00;;;7.30;99.90;;;;;;5031853;28;20719;-57
2022/04/22 04:18:40;;;;;;;22.50;13.20;;;7.30;99.90;;;;;;5031767;28;20040;-56
2022/04/22 04:23:53;;;;;;;26.13;14.35;;;7.40;99.90;;;;;;5031875;28;20873;-55
2022/04/22 04:26:21;;;;;;;25.80;14.27;;;7.40;99.90;;;;;;5033767;28;20147;-57
2022/04/22 04:28:48;;;;;;;29.42;15.30;;;7.50;99.90;;;;;;5032983;28;20025;-58
2022/04/22 04:31:14;;;;;;;25.73;14.48;;;7.60;99.90;;;;;;5037464;28;20373;-57
2022/04/22 04:33:41;;;;;;;24.38;14.80;;;7.60;99.90;;;;;;5031544;28;20040;-59
2022/04/22 04:36:10;;;;;;;25.90;14.45;;;7.60;99.90;;;;;;5034497;28;20664;-59
2022/04/22 04:38:37;;;;;;;26.10;14.48;;;7.60;99.90;;;;;;5031455;28;20036;-59
2022/04/22 04:41:03;;;;;;;24.58;14.35;;;7.70;99.90;;;;;;5032252;28;20108;-58
2022/04/22 04:43:29;;;;;;;27.35;16.10;;;7.70;99.90;;;;;;5033108;28;20698;-55
2022/04/22 04:45:54;;;;;;;31.23;15.93;;;7.70;99.90;;;;;;5038312;28;20058;-59
2022/04/22 04:48:21;;;;;;;21.73;13.27;;;7.80;99.90;;;;;;5037319;28;20059;-56
2022/04/22 04:50:47;;;;;;;25.77;14.10;;;7.80;99.90;;;;;;5034936;28;20478;-57
2022/04/22 04:53:13;;;;;;;23.20;13.60;;;7.90;99.90;;;;;;5035952;28;20033;-59
2022/04/22 04:55:40;;;;;;;24.27;13.05;;;8.00;99.90;;;;;;5038531;28;20029;-58
2022/04/22 04:58:06;;;;;;;25.00;13.25;;;7.90;99.90;;;;;;5036296;28;20487;-58
2022/04/22 05:00:31;;;;;;;22.70;12.95;;;8.00;99.90;;;;;;5033680;28;20483;-59
2022/04/22 05:02:57;;;;;;;23.15;12.30;;;8.10;99.90;;;;;;5036278;28;20120;-59
2022/04/22 05:05:23;;;;;;;23.73;12.45;;;8.20;99.90;;;;;;5036445;28;20017;-56
2022/04/22 05:07:59;;;;;;;21.65;11.85;;;8.40;99.90;;;;;;5035190;28;20438;-59
2022/04/22 05:10:27;;;;;;;17.20;10.50;;;8.70;99.90;;;;;;5034930;28;20025;-59
2022/04/22 05:12:53;;;;;;;17.20;10.68;;;9.00;99.90;;;;;;5035013;28;20029;-58
2022/04/22 05:15:22;;;;;;;19.33;12.38;;;9.30;99.90;;;;;;5038501;28;20116;-56
2022/04/22 05:17:48;;;;;;;19.75;10.63;;;9.80;99.90;;;;;;5035899;28;20036;-59
2022/04/22 05:20:16;;;;;;;17.30;10.70;;;10.00;99.90;;;;;;5036247;28;20033;-59
2022/04/22 05:22:42;;;;;;;20.17;11.95;;;10.10;99.90;;;;;;5035569;28;20044;-57
2022/04/22 05:25:10;;;;;;;18.80;11.43;;;10.20;99.90;;;;;;5036341;28;20156;-58
2022/04/22 05:27:36;;;;;;;15.15;10.13;;;10.60;99.90;;;;;;5036021;28;20032;-57
2022/04/22 05:32:47;;;;;;;14.25;8.85;;;12.70;99.90;;;;;;5035922;28;20534;-58
2022/04/22 05:35:15;;;;;;;14.70;9.93;;;13.90;98.40;;;;;;5035159;28;20025;-58
2022/04/22 05:37:50;;;;;;;18.48;10.25;;;15.00;95.10;;;;;;5037290;28;20032;-60
2022/04/22 05:40:18;;;;;;;18.63;10.02;;;15.70;93.20;;;;;;5036250;28;20033;-59
2022/04/22 05:42:45;;;;;;;12.13;8.80;;;15.80;92.30;;;;;;5036327;28;20063;-60
2022/04/22 05:45:12;;;;;;;16.15;9.30;;;16.10;92.10;;;;;;5035753;28;20052;-59
2022/04/22 05:47:38;;;;;;;15.80;9.05;;;16.30;90.90;;;;;;5033960;28;20555;-57
2022/04/22 05:50:06;;;;;;;15.05;9.57;;;16.00;91.70;;;;;;5034579;28;20033;-59
2022/04/22 05:52:33;;;;;;;14.80;8.98;;;16.20;90.70;;;;;;5035073;28;20021;-60
2022/04/22 05:55:02;;;;;;;14.70;8.93;;;16.50;90.60;;;;;;5034317;28;20052;-60
2022/04/22 05:57:29;;;;;;;13.63;9.18;;;16.90;89.60;;;;;;5033968;28;20124;-56
2022/04/22 05:59:54;;;;;;;13.13;9.57;;;17.20;88.60;;;;;;5034437;28;20037;-60
2022/04/22 06:02:20;;;;;;;14.73;8.40;;;17.40;87.30;;;;;;5036439;28;20036;-59
2022/04/22 06:04:46;;;;;;;11.18;8.13;;;17.90;85.90;;;;;;5034401;28;20536;-61
2022/04/22 06:07:12;;;;;;;12.75;7.80;;;18.30;84.80;;;;;;5034618;28;20029;-60
2022/04/22 06:12:21;;;;;;;;;;;16.50;87.10;;;;;;5036456;28;20035;-59
2022/04/22 06:14:47;;;;;;;12.95;8.75;;;15.10;90.40;;;;;;5033190;28;19908;-59
2022/04/22 06:17:13;;;;;;;14.65;9.25;;;14.00;92.40;;;;;;5035472;28;20067;-59
2022/04/22 06:19:38;;;;;;;15.77;9.43;;;13.10;94.10;;;;;;5034326;28;20112;-60
2022/04/22 06:22:04;;;;;;;15.90;9.43;;;12.30;95.80;;;;;;5034263;28;20539;-58
2022/04/22 06:24:30;;;;;;;16.63;10.15;;;11.90;97.30;;;;;;5033720;28;20047;-59
2022/04/22 06:26:55;;;;;;;14.55;9.10;;;11.50;98.80;;;;;;5037257;28;20118;-57
2022/04/22 06:29:21;;;;;;;18.40;10.25;;;11.10;99.90;;;;;;5035021;28;20038;-59
2022/04/22 06:31:47;;;;;;;18.17;10.32;;;10.90;99.90;;;;;;5036242;28;20029;-56
2022/04/22 06:34:13;;;;;;;18.02;10.23;;;10.80;99.90;;;;;;5036159;28;20030;-59
2022/04/22 06:36:39;;;;;;;15.80;9.13;;;10.80;99.90;;;;;;5034305;28;20110;-58
2022/04/22 06:39:05;;;;;;;16.65;10.43;;;10.70;99.90;;;;;;5034136;28;20120;-59
2022/04/22 06:46:59;;;;;;;;;;;10.80;99.90;;;;;;5034355;28;20123;-59
2022/04/22 06:49:25;;;;;;;13.70;8.38;;;11.10;99.90;;;;;;5032844;28;20632;-59
2022/04/22 06:51:51;;;;;;;16.17;9.65;;;11.30;99.90;;;;;;5033364;28;20044;-59
2022/04/22 06:54:17;;;;;;;13.60;9.00;;;11.80;99.90;;;;;;5045037;28;20043;-59
2022/04/22 06:56:44;;;;;;;14.25;9.88;;;12.40;99.90;;;;;;5046302;28;20029;-60
2022/04/22 06:59:10;;;;;;;14.93;9.23;;;13.40;98.80;;;;;;5024935;28;20037;-60
2022/04/22 07:01:36;;;;;;;16.02;10.30;;;13.90;98.10;;;;;;5048080;28;20036;-59
2022/04/22 07:04:02;;;;;;;17.98;10.43;;;14.20;96.80;;;;;;5048848;28;20068;-59
2022/04/22 07:06:29;;;;;;;15.00;10.52;;;14.90;95.80;;;;;;5048453;28;20021;-60
2022/04/22 07:08:55;;;;;;;17.65;11.07;;;15.90;95.10;;;;;;5049209;28;20063;-58
2022/04/22 07:11:26;;;;;;;15.35;9.93;;;17.40;91.90;;;;;;5049671;28;20598;-60
2022/04/22 07:13:56;;;;;;;14.23;9.50;;;18.50;90.40;;;;;;5048361;28;20108;-59
2022/04/22 07:16:23;;;;;;;14.27;9.50;;;19.20;85.60;;;;;;5051630;28;20021;-58
2022/04/22 07:18:49;;;;;;;13.30;9.90;;;19.70;83.80;;;;;;5039684;28;20511;-60
2022/04/22 07:21:15;;;;;;;11.77;9.07;;;20.10;81.90;;;;;;5044037;28;20037;-58
2022/04/22 07:23:40;;;;;;;13.20;9.15;;;20.20;80.50;;;;;;5041587;28;20029;-58
2022/04/22 07:28:49;;;;;;;12.38;9.38;;;19.50;81.50;;;;;;5076819;22;20047;-58
2022/04/22 07:31:16;;;;;;;15.13;9.43;;;20.10;79.80;;;;;;5065242;28;20024;-58
2022/04/22 07:33:42;;;;;;;13.52;9.15;;;20.10;80.30;;;;;;5051653;28;20089;-60
2022/04/22 07:36:08;;;;;;;12.80;8.82;;;20.70;77.50;;;;;;5065572;28;20519;-58
2022/04/22 07:38:34;;;;;;;11.50;8.45;;;20.90;77.50;;;;;;5034358;28;20029;-59
2022/04/22 07:41:00;;;;;;;11.20;8.20;;;20.30;77.30;;;;;;5033561;28;20036;-61
2022/04/22 07:48:56;;;;;;;14.70;8.30;;;20.70;75.30;;;;;;5027848;28;20086;-57
2022/04/22 07:51:25;;;;;;;10.43;7.60;;;20.00;77.10;;;;;;5030321;28;20041;-58
2022/04/22 07:53:51;;;;;;;12.90;7.97;;;19.70;78.90;;;;;;5048814;28;20079;-59
2022/04/22 07:56:17;;;;;;;12.82;8.40;;;19.40;79.60;;;;;;5034423;28;20026;-59
2022/04/22 07:58:43;;;;;;;9.85;7.65;;;19.70;79.00;;;;;;5037174;28;20392;-59
2022/04/22 08:01:08;;;;;;;12.85;7.78;;;19.60;80.30;;;;;;5029712;28;20041;-57
2022/04/22 08:03:36;;;;;;;8.65;7.70;;;20.20;76.00;;;;;;5030516;28;20033;-58
2022/04/22 08:06:02;;;;;;;12.10;7.95;;;20.40;73.50;;;;;;5039640;28;20053;-59
2022/04/22 08:08:30;;;;;;;9.90;7.20;;;19.30;76.80;;;;;;5040678;28;20162;-60
2022/04/22 08:10:56;;;;;;;8.60;7.28;;;20.10;77.70;;;;;;5033212;28;20025;-58
2022/04/22 08:13:21;;;;;;;13.38;6.93;;;20.20;74.40;;;;;;5040645;28;20045;-57
2022/04/22 08:15:47;;;;;;;7.95;6.63;;;20.20;77.10;;;;;;5029008;28;20029;-58
2022/04/22 08:18:13;;;;;;;7.30;6.07;;;20.80;74.40;;;;;;5043312;28;20048;-60
2022/04/22 08:20:38;;;;;;;8.32;6.82;;;21.40;70.90;;;;;;5031970;28;20048;-59
2022/04/22 08:23:05;;;;;;;7.75;6.40;;;21.10;70.70;;;;;;5031422;28;20037;-60
2022/04/22 08:25:31;;;;;;;10.95;6.80;;;21.40;73.00;;;;;;5031483;28;20032;-58
2022/04/22 08:27:56;;;;;;;9.07;5.72;;;21.90;69.90;;;;;;5042729;28;20037;-56
2022/04/22 08:30:23;;;;;;;8.35;5.57;;;21.90;68.40;;;;;;5041826;28;20033;-60
2022/04/22 08:32:49;;;;;;;7.72;5.65;;;21.80;69.50;;;;;;5045147;28;20751;-58
2022/04/22 08:35:14;;;;;;;12.57;5.38;;;21.80;67.30;;;;;;5047862;28;20037;-59
2022/04/22 08:37:44;;;;;;;7.50;5.13;;;21.20;67.00;;;;;;5042176;28;20547;-59
2022/04/22 08:40:10;;;;;;;6.88;5.70;;;20.20;69.20;;;;;;5033874;28;20029;-57
2022/04/22 08:42:38;;;;;;;10.60;6.68;;;19.50;69.80;;;;;;5040783;28;20412;-60
2022/04/22 08:45:05;;;;;;;8.68;7.40;;;18.90;71.00;;;;;;5030097;28;20079;-57
2022/04/22 08:50:19;;;;;;;9.48;6.85;;;18.10;74.10;;;;;;5039140;28;20116;-59
2022/04/22 08:53:06;;;;;;;9.60;7.05;;;17.60;73.10;;;;;;5036853;28;20029;-58
2022/04/22 08:55:32;;;;;;;9.02;7.00;;;16.90;74.70;;;;;;5039923;28;20029;-59
2022/04/22 08:57:59;;;;;;;7.88;6.85;;;17.00;76.70;;;;;;5050191;28;20424;-59
2022/04/22 09:00:27;;;;;;;8.02;6.13;;;18.30;75.00;;;;;;5018363;28;20076;-59
2022/04/22 09:02:57;;;;;;;9.32;5.95;;;19.40;72.30;;;;;;5037421;28;20044;-60
2022/04/22 09:05:24;;;;;;;7.13;5.68;;;20.30;68.70;;;;;;5042541;28;20025;-61
2022/04/22 09:07:51;;;;;;;6.88;5.88;;;20.80;68.40;;;;;;5024338;28;20022;-60
2022/04/22 09:10:17;;;;;;;8.73;5.95;;;20.80;67.30;;;;;;5031569;28;20530;-59
2022/04/22 09:12:51;;;;;;;6.97;5.65;;;20.20;68.40;;;;;;5038831;28;20026;-59
2022/04/22 09:15:17;;;;;;;8.05;6.95;;;20.40;69.50;;;;;;5039137;28;20104;-59
2022/04/22 09:17:42;;;;;;;11.65;7.95;;;20.30;68.40;;;;;;5044445;28;20504;-60
2022/04/22 09:20:13;;;;;;;14.38;7.65;;;19.10;69.60;;;;;;5043521;28;20033;-58
2022/04/22 09:22:38;;;;;;;10.02;7.15;;;18.80;71.80;;;;;;5041220;28;20387;-60
2022/04/22 09:25:08;;;;;;;8.93;7.40;;;18.20;74.40;;;;;;5020995;28;20079;-60
2022/04/22 09:27:38;;;;;;;8.73;7.68;;;17.60;73.90;;;;;;5035284;28;20094;-59
2022/04/22 09:30:09;;;;;;;13.40;7.53;;;17.20;74.80;;;;;;5028609;28;20025;-57
2022/04/22 09:32:39;;;;;;;11.85;8.20;;;16.80;76.00;;;;;;5043252;28;20041;-55
2022/04/22 09:35:15;;;;;;;9.77;6.70;;;16.60;76.70;;;;;;5037036;28;20039;-59
2022/04/22 09:43:35;;;;;;;7.90;6.10;;;16.90;78.00;;;;;;5031240;28;20028;-59
2022/04/22 09:46:02;;;;;;;11.68;8.27;;;17.00;78.30;;;;;;5039808;28;20108;-56
2022/04/22 09:48:44;;;;;;;11.50;8.73;;;17.00;77.20;;;;;;5032060;28;20032;-56
2022/04/22 09:51:39;;;;;;;12.65;9.25;;;16.90;75.60;;;;;;5026261;28;20787;-57
2022/04/22 09:54:10;;;;;;;15.13;10.48;;;17.10;76.00;;;;;;5025282;28;20041;-60
2022/04/22 09:56:38;;;;;;;16.75;11.43;;;17.10;76.90;;;;;;5029183;28;20037;-56
2022/04/22 09:59:26;;;;;;;10.55;8.60;;;17.50;75.20;;;;;;5028815;28;20021;-58
2022/04/22 10:01:53;;;;;;;10.95;8.18;;;18.20;75.90;;;;;;5035431;28;20391;-58
2022/04/22 10:04:20;;;;;;;9.18;7.65;;;18.50;71.40;;;;;;5044919;28;20099;-59
2022/04/22 10:06:47;;;;;;;10.70;8.23;;;18.70;72.50;;;;;;5053169;28;20082;-57
2022/04/22 10:09:14;;;;;;;8.65;6.72;;;19.40;71.50;;;;;;5056035;28;20375;-59
2022/04/22 10:11:46;;;;;;;8.65;7.15;;;19.50;70.10;;;;;;5056325;28;20487;-60
2022/04/22 10:14:12;;;;;;;8.43;6.55;;;19.70;71.90;;;;;;5050205;28;20039;-59
2022/04/22 10:16:38;;;;;;;10.15;7.72;;;19.10;68.40;;;;;;5046586;28;20020;-59
2022/04/22 10:19:05;;;;;;;9.50;7.53;;;18.70;70.60;;;;;;5049572;28;20025;-57
2022/04/22 10:21:31;;;;;;;9.13;7.35;;;18.80;71.70;;;;;;5048332;28;20116;-59
2022/04/22 10:23:57;;;;;;;9.30;7.65;;;18.50;72.00;;;;;;5042489;28;20136;-59
2022/04/22 10:26:23;;;;;;;13.07;7.85;;;18.20;72.50;;;;;;5045331;28;20037;-57
2022/04/22 10:28:50;;;;;;;11.55;7.40;;;18.30;74.10;;;;;;5025621;28;20063;-59
2022/04/22 10:31:16;;;;;;;10.07;7.93;;;18.70;72.90;;;;;;5044000;28;20383;-59
2022/04/22 10:33:45;;;;;;;11.02;7.32;;;18.90;71.80;;;;;;5046964;28;20056;-57
2022/04/22 10:36:13;;;;;;;11.45;9.05;;;19.60;74.00;;;;;;5046315;28;20038;-59
2022/04/22 10:38:43;;;;;;;9.13;7.03;;;20.30;69.60;;;;;;5047458;28;20029;-60
2022/04/22 10:41:19;;;;;;;9.23;7.38;;;20.50;69.00;;;;;;5049130;28;20376;-58
2022/04/22 10:49:44;;;;;;;10.68;8.10;;;19.90;68.00;;;;;;5049761;28;20120;-58
2022/04/22 10:52:19;;;;;;;11.43;7.55;;;19.70;69.30;;;;;;5048614;28;20021;-58
2022/04/22 10:54:51;;;;;;;9.13;7.60;;;19.90;68.60;;;;;;5049052;28;20039;-57
2022/04/22 10:57:21;;;;;;;10.18;8.23;;;19.90;68.80;;;;;;5044979;28;20029;-58
2022/04/22 11:00:07;;;;;;;14.10;8.07;;;18.80;69.20;;;;;;5033146;28;20037;-60
2022/04/22 11:02:37;;;;;;;9.20;7.78;;;19.10;70.50;;;;;;5049079;28;20543;-59
2022/04/22 11:05:32;;;;;;;12.45;6.57;;;19.20;69.70;;;;;;5048531;28;20029;-58
2022/04/22 11:07:58;;;;;;;9.73;7.60;;;19.40;71.40;;;;;;5028555;28;20064;-59
2022/04/22 11:10:46;;;;;;;11.88;7.85;;;18.80;68.60;;;;;;5046988;28;20072;-59
2022/04/22 11:13:34;;;;;;;11.70;9.27;;;18.30;69.70;;;;;;5048090;28;20025;-57
2022/04/22 11:16:13;;;;;;;12.57;8.05;;;18.00;71.10;;;;;;5030260;28;20057;-58
2022/04/22 11:18:40;;;;;;;8.43;7.53;;;17.80;70.40;;;;;;5048577;28;20029;-57
2022/04/22 11:21:13;;;;;;;9.23;7.47;;;17.90;71.40;;;;;;5048633;28;20025;-60
2022/04/22 11:23:42;;;;;;;12.13;7.95;;;18.20;71.30;;;;;;5048383;28;20106;-57
2022/04/22 11:26:11;;;;;;;9.48;7.57;;;18.40;70.40;;;;;;5046441;28;20159;-59
2022/04/22 11:28:41;;;;;;;9.93;8.00;;;18.90;70.90;;;;;;5048643;28;20055;-59
2022/04/22 11:31:08;;;;;;;9.02;7.43;;;19.00;69.50;;;;;;5049277;28;20021;-57
2022/04/22 11:34:02;;;;;;;8.75;7.25;;;19.30;69.00;;;;;;5047206;28;20043;-59
2022/04/22 11:36:28;;;;;;;11.32;8.00;;;19.30;68.90;;;;;;5043795;28;20044;-60
2022/04/22 11:38:55;;;;;;;12.93;7.47;;;19.20;68.80;;;;;;5028798;28;20036;-57
2022/04/22 11:41:21;;;;;;;10.65;7.85;;;19.30;69.10;;;;;;5046782;28;20104;-57
2022/04/22 11:43:48;;;;;;;11.18;8.45;;;19.40;68.20;;;;;;5043795;28;20025;-57
2022/04/22 11:46:15;;;;;;;10.00;7.55;;;19.00;68.20;;;;;;5030926;28;20424;-57
2022/04/22 11:48:49;;;;;;;11.38;8.27;;;18.90;68.30;;;;;;5045753;28;20032;-55
2022/04/22 11:51:16;;;;;;;8.32;7.38;;;18.40;70.70;;;;;;5048484;28;20039;-58
2022/04/22 11:53:52;;;;;;;8.93;7.55;;;18.50;71.30;;;;;;5047792;28;20037;-58
2022/04/22 11:56:23;;;;;;;9.32;7.15;;;18.40;71.10;;;;;;5053173;28;20029;-57
2022/04/22 11:58:56;;;;;;;8.55;7.18;;;18.50;71.40;;;;;;5049218;28;20029;-58
2022/04/22 12:06:56;;;;;;;7.80;7.00;;;18.60;70.00;;;;;;5035204;28;20032;-54
2022/04/22 12:09:22;;;;;;;12.30;7.32;;;18.80;69.70;;;;;;5052642;28;20048;-57
2022/04/22 12:11:50;;;;;;;9.02;7.43;;;18.80;69.50;;;;;;5050783;28;20064;-56
2022/04/22 12:14:24;;;;;;;8.52;7.10;;;18.60;69.50;;;;;;5044212;28;20028;-57
2022/04/22 12:17:01;;;;;;;12.55;6.63;;;18.70;69.50;;;;;;5048417;28;20768;-59
2022/04/22 12:19:27;;;;;;;8.80;7.35;;;18.80;70.40;;;;;;5051974;28;20028;-60
2022/04/22 12:21:54;;;;;;;10.80;6.80;;;18.90;68.00;;;;;;5051178;28;20067;-58
2022/04/22 12:24:21;;;;;;;8.73;6.93;;;19.00;68.80;;;;;;5033539;28;20119;-59
2022/04/22 12:26:47;;;;;;;9.32;6.65;;;18.90;69.40;;;;;;5051613;28;20444;-58
2022/04/22 12:29:15;;;;;;;8.98;7.28;;;18.60;68.60;;;;;;5052612;28;20029;-60
2022/04/22 12:31:43;;;;;;;9.50;6.75;;;18.40;69.50;;;;;;5053057;28;20417;-57
2022/04/22 12:34:10;;;;;;;8.77;6.95;;;18.40;71.30;;;;;;5051744;28;20609;-57
2022/04/22 12:36:37;;;;;;;10.65;7.13;;;18.30;70.70;;;;;;5051353;28;20532;-58
2022/04/22 12:39:04;;;;;;;7.70;6.38;;;18.60;70.00;;;;;;5051744;28;20516;-56
2022/04/22 12:41:33;;;;;;;6.95;5.93;;;18.90;68.50;;;;;;5052643;28;20033;-57
2022/04/22 12:43:58;;;;;;;8.80;6.70;;;19.10;67.80;;;;;;5049268;28;20121;-59
2022/04/22 12:52:19;;;;;;;8.43;6.15;;;18.70;68.80;;;;;;5051685;28;20040;-55
2022/04/22 12:54:45;;;;;;;7.07;5.60;;;18.40;70.10;;;;;;5049428;28;20120;-57
2022/04/22 12:57:16;;;;;;;8.77;5.85;;;18.40;70.60;;;;;;5049682;28;20036;-59
2022/04/22 12:59:50;;;;;;;6.22;5.18;;;18.60;69.40;;;;;;5050766;28;21018;-56
2022/04/22 13:02:18;;;;;;;8.70;6.78;;;18.70;69.60;;;;;;5035096;28;20049;-58
2022/04/22 13:04:58;;;;;;;10.43;7.20;;;18.60;67.80;;;;;;5050853;28;20028;-60
2022/04/22 13:07:24;;;;;;;8.20;6.93;;;18.90;68.00;;;;;;5049043;28;20033;-59
2022/04/22 13:09:50;;;;;;;5.72;5.07;;;19.10;66.90;;;;;;5050052;28;20369;-60
2022/04/22 13:12:16;;;;;;;5.93;5.13;;;19.40;67.50;;;;;;5051584;28;20131;-59
2022/04/22 13:14:42;;;;;;;8.07;6.20;;;19.30;66.80;;;;;;5046986;28;20037;-58
2022/04/22 13:17:21;;;;;;;9.57;6.25;;;19.10;67.10;;;;;;5050515;28;20025;-56
2022/04/22 13:19:47;;;;;;;6.05;5.28;;;18.90;67.90;;;;;;5051211;28;20119;-58
2022/04/22 13:22:13;;;;;;;11.10;6.07;;;19.00;68.10;;;;;;5047714;28;20594;-56
2022/04/22 13:24:40;;;;;;;8.52;6.07;;;19.20;68.50;;;;;;5042940;28;20086;-59
2022/04/22 13:27:07;;;;;;;7.45;6.22;;;19.40;68.20;;;;;;5048473;28;20033;-59
2022/04/22 13:29:32;;;;;;;6.65;5.35;;;19.30;67.90;;;;;;5050345;28;20032;-57
2022/04/22 13:31:58;;;;;;;8.27;5.85;;;19.40;70.40;;;;;;5050210;28;20396;-59
2022/04/22 13:34:23;;;;;;;8.25;6.10;;;19.40;67.90;;;;;;5049465;28;20025;-57
2022/04/22 13:36:49;;;;;;;9.05;6.18;;;19.30;69.10;;;;;;5048263;28;20043;-54
2022/04/22 13:39:14;;;;;;;9.40;6.53;;;19.10;68.40;;;;;;5048286;28;20696;-56
2022/04/22 13:41:40;;;;;;;7.00;5.30;;;19.10;68.40;;;;;;5047182;28;20037;-60
2022/04/22 13:44:05;;;;;;;11.43;6.15;;;18.90;69.40;;;;;;5048842;28;20025;-57
2022/04/22 13:54:43;;;;;;;;;;;18.80;69.10;;;;;;5045209;28;20126;-57
2022/04/22 13:57:09;;;;;;;9.10;5.63;;;18.90;69.10;;;;;;5046018;28;19999;-51
2022/04/22 13:59:34;;;;;;;8.60;6.43;;;18.90;67.40;;;;;;5044475;28;20033;-57
2022/04/22 14:02:01;;;;;;;10.15;6.28;;;18.90;66.80;;;;;;5024906;28;20064;-56